sensor_id;sensor_type;location;lat;lon;timestamp;pressure;altitude;pressure_sealevel;temperature;humidity
32298;BME280;18782;48.984;8.548;2023-02-08T00:00:43;102076.94;;;-2.30;85.65
32298;BME280;18782;48.984;8.548;2023-02-08T00:03:11;102074.13;;;-2.33;85.84
32298;BME280;18782;48.984;8.548;2023-02-08T00:05:39;102075.56;;;-2.36;86.30
32298;BME280;18782;48.984;8.548;2023-02-08T00:08:07;102074.66;;;-2.36;86.38
32298;BME280;18782;48.984;8.548;2023-02-08T00:10:34;102064.03;;;-2.33;86.88
32298;BME280;18782;48.984;8.548;2023-02-08T00:13:02;102067.28;;;-2.34;87.33
32298;BME280;18782;48.984;8.548;2023-02-08T00:15:30;102069.81;;;-2.34;86.83
32298;BME280;18782;48.984;8.548;2023-02-08T00:17:59;102063.28;;;-2.32;87.59
32298;BME280;18782;48.984;8.548;2023-02-08T00:20:27;102069.06;;;-2.33;87.32
32298;BME280;18782;48.984;8.548;2023-02-08T00:22:55;102067.28;;;-2.34;86.97
32298;BME280;18782;48.984;8.548;2023-02-08T00:25:22;102064.75;;;-2.34;86.96
32298;BME280;18782;48.984;8.548;2023-02-08T00:27:50;102066.94;;;-2.38;86.62
32298;BME280;18782;48.984;8.548;2023-02-08T00:30:18;102062.47;;;-2.40;86.68
32298;BME280;18782;48.984;8.548;2023-02-08T00:32:46;102060.50;;;-2.43;87.13
32298;BME280;18782;48.984;8.548;2023-02-08T00:35:15;102057.97;;;-2.43;87.26
32298;BME280;18782;48.984;8.548;2023-02-08T00:37:43;102064.88;;;-2.49;87.01
32298;BME280;18782;48.984;8.548;2023-02-08T00:40:11;102062.00;;;-2.52;88.07
32298;BME280;18782;48.984;8.548;2023-02-08T00:42:38;102069.75;;;-2.50;88.16
32298;BME280;18782;48.984;8.548;2023-02-08T00:45:07;102067.03;;;-2.52;87.27
32298;BME280;18782;48.984;8.548;2023-02-08T00:47:35;102061.84;;;-2.53;87.77
32298;BME280;18782;48.984;8.548;2023-02-08T00:50:04;102061.69;;;-2.55;88.04
32298;BME280;18782;48.984;8.548;2023-02-08T00:52:33;102060.94;;;-2.54;87.73
32298;BME280;18782;48.984;8.548;2023-02-08T00:55:00;102061.34;;;-2.58;86.76
32298;BME280;18782;48.984;8.548;2023-02-08T00:57:28;102066.38;;;-2.58;87.00
32298;BME280;18782;48.984;8.548;2023-02-08T00:59:56;102071.09;;;-2.61;87.32
32298;BME280;18782;48.984;8.548;2023-02-08T01:02:23;102069.28;;;-2.62;87.11
32298;BME280;18782;48.984;8.548;2023-02-08T01:04:51;102074.00;;;-2.65;87.53
32298;BME280;18782;48.984;8.548;2023-02-08T01:07:18;102066.47;;;-2.72;87.72
32298;BME280;18782;48.984;8.548;2023-02-08T01:09:47;102055.72;;;-2.78;87.85
32298;BME280;18782;48.984;8.548;2023-02-08T01:12:15;102064.53;;;-2.82;87.93
32298;BME280;18782;48.984;8.548;2023-02-08T01:14:43;102054.38;;;-2.91;88.67
32298;BME280;18782;48.984;8.548;2023-02-08T01:17:10;102055.63;;;-2.94;88.91
32298;BME280;18782;48.984;8.548;2023-02-08T01:19:38;102059.03;;;-2.94;89.25
32298;BME280;18782;48.984;8.548;2023-02-08T01:22:08;102061.75;;;-2.92;88.06
32298;BME280;18782;48.984;8.548;2023-02-08T01:24:35;102057.41;;;-2.93;88.03
32298;BME280;18782;48.984;8.548;2023-02-08T01:27:04;102058.16;;;-2.94;88.30
32298;BME280;18782;48.984;8.548;2023-02-08T01:29:32;102052.22;;;-2.95;88.35
32298;BME280;18782;48.984;8.548;2023-02-08T01:31:59;102052.94;;;-2.96;88.09
32298;BME280;18782;48.984;8.548;2023-02-08T01:34:28;102057.09;;;-2.96;89.37
32298;BME280;18782;48.984;8.548;2023-02-08T01:36:55;102061.03;;;-2.98;88.50
32298;BME280;18782;48.984;8.548;2023-02-08T01:39:23;102049.03;;;-3.01;88.30
32298;BME280;18782;48.984;8.548;2023-02-08T01:41:51;102047.94;;;-3.03;88.74
32298;BME280;18782;48.984;8.548;2023-02-08T01:47:25;102048.13;;;-3.01;88.51
32298;BME280;18782;48.984;8.548;2023-02-08T01:49:53;102039.69;;;-3.02;88.66
32298;BME280;18782;48.984;8.548;2023-02-08T01:52:23;102034.28;;;-3.05;88.75
32298;BME280;18782;48.984;8.548;2023-02-08T01:54:55;102036.06;;;-3.04;88.58
32298;BME280;18782;48.984;8.548;2023-02-08T01:57:24;102037.53;;;-3.06;87.71
32298;BME280;18782;48.984;8.548;2023-02-08T01:59:54;102035.19;;;-3.04;88.80
32298;BME280;18782;48.984;8.548;2023-02-08T02:02:25;102025.31;;;-3.10;88.71
32298;BME280;18782;48.984;8.548;2023-02-08T02:04:53;102028.94;;;-3.15;88.24
32298;BME280;18782;48.984;8.548;2023-02-08T02:07:25;102030.56;;;-3.16;88.36
32298;BME280;18782;48.984;8.548;2023-02-08T02:09:58;102036.19;;;-3.18;88.82
32298;BME280;18782;48.984;8.548;2023-02-08T02:12:26;102019.25;;;-3.19;88.19
32298;BME280;18782;48.984;8.548;2023-02-08T02:14:56;102021.06;;;-3.18;88.70
32298;BME280;18782;48.984;8.548;2023-02-08T02:17:26;102023.22;;;-3.21;88.33
32298;BME280;18782;48.984;8.548;2023-02-08T02:19:58;102022.16;;;-3.23;87.80
32298;BME280;18782;48.984;8.548;2023-02-08T02:32:06;102017.34;;;-3.29;88.47
32298;BME280;18782;48.984;8.548;2023-02-08T02:34:46;102016.97;;;-3.32;88.82
32298;BME280;18782;48.984;8.548;2023-02-08T02:37:28;102015.72;;;-3.35;88.10
32298;BME280;18782;48.984;8.548;2023-02-08T02:40:05;102008.91;;;-3.36;88.54
32298;BME280;18782;48.984;8.548;2023-02-08T02:42:41;102013.06;;;-3.37;88.11
32298;BME280;18782;48.984;8.548;2023-02-08T02:45:34;102004.97;;;-3.42;87.53
32298;BME280;18782;48.984;8.548;2023-02-08T02:48:10;102011.13;;;-3.47;87.96
32298;BME280;18782;48.984;8.548;2023-02-08T02:50:42;102016.16;;;-3.47;88.08
32298;BME280;18782;48.984;8.548;2023-02-08T02:53:15;102013.31;;;-3.50;87.93
32298;BME280;18782;48.984;8.548;2023-02-08T02:55:48;102016.16;;;-3.47;88.79
32298;BME280;18782;48.984;8.548;2023-02-08T02:58:19;102016.53;;;-3.51;88.77
32298;BME280;18782;48.984;8.548;2023-02-08T03:00:53;102014.56;;;-3.53;88.35
32298;BME280;18782;48.984;8.548;2023-02-08T03:03:24;102010.44;;;-3.53;88.79
32298;BME280;18782;48.984;8.548;2023-02-08T03:05:56;102005.75;;;-3.57;88.77
32298;BME280;18782;48.984;8.548;2023-02-08T03:08:38;102007.38;;;-3.57;88.77
32298;BME280;18782;48.984;8.548;2023-02-08T03:11:18;102008.13;;;-3.65;88.21
32298;BME280;18782;48.984;8.548;2023-02-08T03:13:58;102009.59;;;-3.68;89.16
32298;BME280;18782;48.984;8.548;2023-02-08T03:16:31;102018.41;;;-3.71;88.28
32298;BME280;18782;48.984;8.548;2023-02-08T03:19:08;102007.28;;;-3.73;88.75
32298;BME280;18782;48.984;8.548;2023-02-08T03:21:40;102009.44;;;-3.76;89.34
32298;BME280;18782;48.984;8.548;2023-02-08T03:24:20;102005.84;;;-3.78;89.19
32298;BME280;18782;48.984;8.548;2023-02-08T03:26:53;102002.28;;;-3.80;89.72
32298;BME280;18782;48.984;8.548;2023-02-08T03:29:29;102011.97;;;-3.83;89.99
32298;BME280;18782;48.984;8.548;2023-02-08T03:32:06;102008.41;;;-3.85;90.47
32298;BME280;18782;48.984;8.548;2023-02-08T03:34:42;102007.72;;;-3.91;90.30
32298;BME280;18782;48.984;8.548;2023-02-08T03:37:15;102008.06;;;-3.96;90.36
32298;BME280;18782;48.984;8.548;2023-02-08T03:39:46;102011.31;;;-4.04;90.03
32298;BME280;18782;48.984;8.548;2023-02-08T03:42:18;102007.75;;;-4.06;90.31
32298;BME280;18782;48.984;8.548;2023-02-08T03:44:49;102023.91;;;-4.11;90.37
32298;BME280;18782;48.984;8.548;2023-02-08T03:47:21;102011.34;;;-4.11;90.78
32298;BME280;18782;48.984;8.548;2023-02-08T03:49:53;102026.06;;;-4.14;90.49
32298;BME280;18782;48.984;8.548;2023-02-08T03:52:22;102021.03;;;-4.14;91.23
32298;BME280;18782;48.984;8.548;2023-02-08T03:54:54;102019.63;;;-4.12;90.58
32298;BME280;18782;48.984;8.548;2023-02-08T03:57:25;102028.22;;;-4.10;90.98
32298;BME280;18782;48.984;8.548;2023-02-08T03:59:58;102019.25;;;-4.15;89.97
32298;BME280;18782;48.984;8.548;2023-02-08T04:02:28;102021.75;;;-4.15;90.51
32298;BME280;18782;48.984;8.548;2023-02-08T04:05:01;102017.63;;;-4.14;91.00
32298;BME280;18782;48.984;8.548;2023-02-08T04:07:28;102026.78;;;-4.15;90.47
32298;BME280;18782;48.984;8.548;2023-02-08T04:09:56;102021.41;;;-4.18;90.54
32298;BME280;18782;48.984;8.548;2023-02-08T04:12:24;102017.63;;;-4.14;91.16
32298;BME280;18782;48.984;8.548;2023-02-08T04:14:51;102018.53;;;-4.14;90.00
32298;BME280;18782;48.984;8.548;2023-02-08T04:17:19;102017.09;;;-4.12;90.12
32298;BME280;18782;48.984;8.548;2023-02-08T04:19:46;102015.13;;;-4.14;90.26
32298;BME280;18782;48.984;8.548;2023-02-08T04:22:15;102013.50;;;-4.14;90.01
32298;BME280;18782;48.984;8.548;2023-02-08T04:24:43;102019.59;;;-4.19;90.10
32298;BME280;18782;48.984;8.548;2023-02-08T04:27:10;102017.28;;;-4.17;90.34
32298;BME280;18782;48.984;8.548;2023-02-08T04:29:38;102024.13;;;-4.16;90.52
32298;BME280;18782;48.984;8.548;2023-02-08T04:32:06;102015.84;;;-4.15;90.75
32298;BME280;18782;48.984;8.548;2023-02-08T04:34:36;102022.31;;;-4.17;90.27
32298;BME280;18782;48.984;8.548;2023-02-08T04:37:04;102024.13;;;-4.16;90.42
32298;BME280;18782;48.984;8.548;2023-02-08T04:39:34;102015.13;;;-4.14;90.25
32298;BME280;18782;48.984;8.548;2023-02-08T04:42:01;102012.25;;;-4.17;88.91
32298;BME280;18782;48.984;8.548;2023-02-08T04:44:29;102017.81;;;-4.20;88.61
32298;BME280;18782;48.984;8.548;2023-02-08T04:46:58;102006.34;;;-4.25;89.27
32298;BME280;18782;48.984;8.548;2023-02-08T04:49:25;102003.44;;;-4.28;89.55
32298;BME280;18782;48.984;8.548;2023-02-08T04:51:53;102004.72;;;-4.25;89.81
32298;BME280;18782;48.984;8.548;2023-02-08T04:54:20;101998.78;;;-4.25;89.77
32298;BME280;18782;48.984;8.548;2023-02-08T04:56:49;102000.75;;;-4.30;89.16
32298;BME280;18782;48.984;8.548;2023-02-08T04:59:17;101991.28;;;-4.32;89.11
32298;BME280;18782;48.984;8.548;2023-02-08T05:01:45;101994.69;;;-4.32;88.76
32298;BME280;18782;48.984;8.548;2023-02-08T05:04:12;101985.72;;;-4.37;88.40
32298;BME280;18782;48.984;8.548;2023-02-08T05:06:40;101990.56;;;-4.38;88.78
32298;BME280;18782;48.984;8.548;2023-02-08T05:09:08;101977.97;;;-4.46;88.30
32298;BME280;18782;48.984;8.548;2023-02-08T05:11:36;101986.78;;;-4.49;89.14
32298;BME280;18782;48.984;8.548;2023-02-08T05:14:05;101984.09;;;-4.51;89.49
32298;BME280;18782;48.984;8.548;2023-02-08T05:16:32;101984.66;;;-4.53;89.65
32298;BME280;18782;48.984;8.548;2023-02-08T05:19:00;101979.81;;;-4.59;90.01
32298;BME280;18782;48.984;8.548;2023-02-08T05:21:27;101984.47;;;-4.62;88.82
32298;BME280;18782;48.984;8.548;2023-02-08T05:23:55;101985.19;;;-4.63;89.29
32298;BME280;18782;48.984;8.548;2023-02-08T05:26:23;101970.47;;;-4.67;89.81
32298;BME280;18782;48.984;8.548;2023-02-08T05:28:50;101980.00;;;-4.64;90.02
32298;BME280;18782;48.984;8.548;2023-02-08T05:31:21;101979.81;;;-4.59;90.23
32298;BME280;18782;48.984;8.548;2023-02-08T05:33:50;101979.44;;;-4.62;89.75
32298;BME280;18782;48.984;8.548;2023-02-08T05:36:18;101972.63;;;-4.63;90.20
32298;BME280;18782;48.984;8.548;2023-02-08T05:38:46;101977.66;;;-4.63;90.62
32298;BME280;18782;48.984;8.548;2023-02-08T05:41:14;101977.47;;;-4.64;90.40
32298;BME280;18782;48.984;8.548;2023-02-08T05:43:42;101979.63;;;-4.67;90.21
32298;BME280;18782;48.984;8.548;2023-02-08T05:46:10;101982.31;;;-4.66;89.76
32298;BME280;18782;48.984;8.548;2023-02-08T05:48:39;101979.63;;;-4.67;89.31
32298;BME280;18782;48.984;8.548;2023-02-08T05:51:06;101986.44;;;-4.66;88.64
32298;BME280;18782;48.984;8.548;2023-02-08T05:53:34;101987.88;;;-4.68;88.36
32298;BME280;18782;48.984;8.548;2023-02-08T05:56:03;101983.75;;;-4.68;88.25
32298;BME280;18782;48.984;8.548;2023-02-08T05:58:31;101986.63;;;-4.72;88.50
32298;BME280;18782;48.984;8.548;2023-02-08T06:00:59;101987.00;;;-4.69;88.13
32298;BME280;18782;48.984;8.548;2023-02-08T06:03:27;101986.25;;;-4.68;88.00
32298;BME280;18782;48.984;8.548;2023-02-08T06:05:58;101981.97;;;-4.69;87.93
32298;BME280;18782;48.984;8.548;2023-02-08T06:08:26;101993.97;;;-4.74;88.11
32298;BME280;18782;48.984;8.548;2023-02-08T06:10:54;101998.81;;;-4.75;88.25
32298;BME280;18782;48.984;8.548;2023-02-08T06:13:22;101994.88;;;-4.73;88.83
32298;BME280;18782;48.984;8.548;2023-02-08T06:15:49;101997.00;;;-4.76;88.23
32298;BME280;18782;48.984;8.548;2023-02-08T06:18:17;102004.22;;;-4.79;88.03
32298;BME280;18782;48.984;8.548;2023-02-08T06:20:44;102011.53;;;-4.81;88.06
32298;BME280;18782;48.984;8.548;2023-02-08T06:23:13;102011.03;;;-4.78;87.62
32298;BME280;18782;48.984;8.548;2023-02-08T06:25:41;102009.41;;;-4.78;87.33
32298;BME280;18782;48.984;8.548;2023-02-08T06:28:08;102012.34;;;-3.06;100.00
32298;BME280;18782;48.984;8.548;2023-02-08T06:30:36;102019.16;;;-3.79;100.00
32298;BME280;18782;48.984;8.548;2023-02-08T06:33:04;102013.66;;;-4.12;96.02
32298;BME280;18782;48.984;8.548;2023-02-08T06:35:32;102008.47;;;-4.28;93.98
32298;BME280;18782;48.984;8.548;2023-02-08T06:38:00;102006.53;;;-4.38;92.64
32298;BME280;18782;48.984;8.548;2023-02-08T06:40:29;102011.75;;;-4.43;90.38
32298;BME280;18782;48.984;8.548;2023-02-08T06:42:56;102015.69;;;-4.53;89.33
32298;BME280;18782;48.984;8.548;2023-02-08T06:45:24;102009.97;;;-4.59;89.32
32298;BME280;18782;48.984;8.548;2023-02-08T06:47:51;102007.44;;;-4.37;95.48
32298;BME280;18782;48.984;8.548;2023-02-08T06:50:19;102018.19;;;-4.31;93.16
32298;BME280;18782;48.984;8.548;2023-02-08T06:52:49;102019.28;;;-4.36;90.80
32298;BME280;18782;48.984;8.548;2023-02-08T06:55:17;102020.00;;;-4.44;90.36
32298;BME280;18782;48.984;8.548;2023-02-08T06:57:46;102027.38;;;-4.46;88.58
32298;BME280;18782;48.984;8.548;2023-02-08T07:00:14;102020.72;;;-4.53;88.89
32298;BME280;18782;48.984;8.548;2023-02-08T07:02:42;102022.88;;;-4.56;88.60
32298;BME280;18782;48.984;8.548;2023-02-08T07:05:09;102029.00;;;-4.54;87.80
32298;BME280;18782;48.984;8.548;2023-02-08T07:07:37;102027.00;;;-4.56;87.44
32298;BME280;18782;48.984;8.548;2023-02-08T07:10:05;102029.69;;;-4.55;87.67
32298;BME280;18782;48.984;8.548;2023-02-08T07:12:33;102018.56;;;-4.57;87.44
32298;BME280;18782;48.984;8.548;2023-02-08T07:15:03;102028.63;;;-4.57;86.57
32298;BME280;18782;48.984;8.548;2023-02-08T07:17:30;102031.88;;;-4.58;87.39
32298;BME280;18782;48.984;8.548;2023-02-08T07:19:58;102032.41;;;-4.53;88.83
32298;BME280;18782;48.984;8.548;2023-02-08T07:22:25;102033.09;;;-4.54;88.55
32298;BME280;18782;48.984;8.548;2023-02-08T07:24:53;102032.56;;;-4.52;89.34
32298;BME280;18782;48.984;8.548;2023-02-08T07:27:20;102035.97;;;-4.44;90.38
32298;BME280;18782;48.984;8.548;2023-02-08T07:29:51;102034.00;;;-4.39;90.62
32298;BME280;18782;48.984;8.548;2023-02-08T07:32:20;102023.59;;;-4.42;90.61
32298;BME280;18782;48.984;8.548;2023-02-08T07:34:47;102027.69;;;-4.14;96.38
32298;BME280;18782;48.984;8.548;2023-02-08T07:37:15;102036.13;;;-4.07;95.53
32298;BME280;18782;48.984;8.548;2023-02-08T07:39:43;102030.38;;;-4.06;92.75
32298;BME280;18782;48.984;8.548;2023-02-08T07:42:10;102032.91;;;-4.06;90.33
32298;BME280;18782;48.984;8.548;2023-02-08T07:44:51;102022.84;;;-4.06;90.24
32298;BME280;18782;48.984;8.548;2023-02-08T07:47:19;102020.31;;;-4.06;89.27
32298;BME280;18782;48.984;8.548;2023-02-08T07:49:47;102019.22;;;-4.08;89.79
32298;BME280;18782;48.984;8.548;2023-02-08T07:52:15;102010.97;;;-4.07;89.88
32298;BME280;18782;48.984;8.548;2023-02-08T07:54:42;102016.19;;;-4.05;90.43
32298;BME280;18782;48.984;8.548;2023-02-08T07:57:10;102018.06;;;-3.74;95.31
32298;BME280;18782;48.984;8.548;2023-02-08T07:59:37;102009.19;;;-3.56;94.97
32298;BME280;18782;48.984;8.548;2023-02-08T08:02:05;102009.94;;;-3.27;92.22
32298;BME280;18782;48.984;8.548;2023-02-08T08:04:34;102010.63;;;-3.21;89.81
32298;BME280;18782;48.984;8.548;2023-02-08T08:07:02;102009.94;;;-3.27;88.94
32298;BME280;18782;48.984;8.548;2023-02-08T08:09:29;102005.28;;;-3.31;88.15
32298;BME280;18782;48.984;8.548;2023-02-08T08:11:57;102013.72;;;-3.31;87.92
32298;BME280;18782;48.984;8.548;2023-02-08T08:14:24;102011.75;;;-3.26;88.33
32298;BME280;18782;48.984;8.548;2023-02-08T08:16:52;102007.06;;;-3.23;88.79
32298;BME280;18782;48.984;8.548;2023-02-08T08:19:19;102008.06;;;-3.14;88.10
32298;BME280;18782;48.984;8.548;2023-02-08T08:21:48;102014.47;;;-3.02;88.59
32298;BME280;18782;48.984;8.548;2023-02-08T08:24:16;102000.72;;;-2.90;87.07
32298;BME280;18782;48.984;8.548;2023-02-08T08:26:44;102006.66;;;-2.66;86.54
32298;BME280;18782;48.984;8.548;2023-02-08T08:29:11;102005.47;;;-2.54;80.95
32298;BME280;18782;48.984;8.548;2023-02-08T08:31:41;101998.34;;;-2.42;77.77
32298;BME280;18782;48.984;8.548;2023-02-08T08:34:09;102002.38;;;-2.28;74.85
32298;BME280;18782;48.984;8.548;2023-02-08T08:36:36;102005.22;;;-2.10;72.64
32298;BME280;18782;48.984;8.548;2023-02-08T08:39:05;101999.47;;;-1.93;69.77
32298;BME280;18782;48.984;8.548;2023-02-08T08:41:33;101990.28;;;-1.76;67.85
32298;BME280;18782;48.984;8.548;2023-02-08T08:44:02;102002.63;;;-1.55;67.86
32298;BME280;18782;48.984;8.548;2023-02-08T08:46:30;101996.66;;;-1.40;66.00
32298;BME280;18782;48.984;8.548;2023-02-08T08:48:57;102002.97;;;-1.27;65.54
32298;BME280;18782;48.984;8.548;2023-02-08T08:51:25;101992.34;;;-1.16;63.84
32298;BME280;18782;48.984;8.548;2023-02-08T08:53:53;101995.84;;;-1.07;62.63
32298;BME280;18782;48.984;8.548;2023-02-08T08:56:21;101996.03;;;-0.97;63.59
32298;BME280;18782;48.984;8.548;2023-02-08T08:58:49;101996.72;;;-0.82;64.11
32298;BME280;18782;48.984;8.548;2023-02-08T09:01:17;102003.06;;;-0.61;63.51
32298;BME280;18782;48.984;8.548;2023-02-08T09:03:45;102001.91;;;-0.47;61.96
32298;BME280;18782;48.984;8.548;2023-02-08T09:06:12;102005.38;;;-0.38;62.73
32298;BME280;18782;48.984;8.548;2023-02-08T09:08:40;102005.19;;;-0.15;62.78
32298;BME280;18782;48.984;8.548;2023-02-08T09:11:11;102003.25;;;-0.01;61.33
32298;BME280;18782;48.984;8.548;2023-02-08T09:13:41;102006.25;;;0.13;58.82
32298;BME280;18782;48.984;8.548;2023-02-08T09:16:11;102003.00;;;0.22;58.00
32298;BME280;18782;48.984;8.548;2023-02-08T09:18:40;102000.63;;;0.33;58.71
32298;BME280;18782;48.984;8.548;2023-02-08T09:21:08;101993.91;;;0.50;57.37
32298;BME280;18782;48.984;8.548;2023-02-08T09:23:37;102000.31;;;0.56;56.39
32298;BME280;18782;48.984;8.548;2023-02-08T09:26:06;101989.56;;;0.67;57.50
32298;BME280;18782;48.984;8.548;2023-02-08T09:28:34;102001.81;;;0.80;56.26
32298;BME280;18782;48.984;8.548;2023-02-08T09:31:08;101996.88;;;0.90;54.75
32298;BME280;18782;48.984;8.548;2023-02-08T09:33:36;101997.25;;;1.03;54.64
32298;BME280;18782;48.984;8.548;2023-02-08T09:36:04;101985.00;;;1.16;53.24
32298;BME280;18782;48.984;8.548;2023-02-08T09:38:32;101986.44;;;1.32;53.97
32298;BME280;18782;48.984;8.548;2023-02-08T09:41:11;101982.81;;;1.47;53.09
32298;BME280;18782;48.984;8.548;2023-02-08T09:43:47;101981.88;;;1.55;52.80
32298;BME280;18782;48.984;8.548;2023-02-08T09:46:21;101975.66;;;1.70;51.43
32298;BME280;18782;48.984;8.548;2023-02-08T09:48:51;101969.56;;;1.68;50.04
32298;BME280;18782;48.984;8.548;2023-02-08T09:51:29;101973.69;;;1.76;50.41
32298;BME280;18782;48.984;8.548;2023-02-08T09:54:01;101974.25;;;1.82;49.70
32298;BME280;18782;48.984;8.548;2023-02-08T09:56:34;101978.69;;;1.94;48.07
32298;BME280;18782;48.984;8.548;2023-02-08T09:59:11;101979.34;;;2.01;48.71
32298;BME280;18782;48.984;8.548;2023-02-08T10:01:41;101978.56;;;2.11;49.41
32298;BME280;18782;48.984;8.548;2023-02-08T10:04:14;101972.09;;;2.33;47.67
32298;BME280;18782;48.984;8.548;2023-02-08T10:06:45;101975.13;;;2.48;47.29
32298;BME280;18782;48.984;8.548;2023-02-08T10:09:19;101975.81;;;2.56;44.63
32298;BME280;18782;48.984;8.548;2023-02-08T10:11:54;101972.50;;;2.57;46.59
32298;BME280;18782;48.984;8.548;2023-02-08T10:14:42;101974.41;;;2.78;45.58
32298;BME280;18782;48.984;8.548;2023-02-08T10:17:31;101966.03;;;2.90;47.49
32298;BME280;18782;48.984;8.548;2023-02-08T10:20:08;101963.81;;;3.13;44.97
32298;BME280;18782;48.984;8.548;2023-02-08T10:22:45;101967.84;;;3.30;44.68
32298;BME280;18782;48.984;8.548;2023-02-08T10:25:26;101962.25;;;3.44;43.86
32298;BME280;18782;48.984;8.548;2023-02-08T10:28:13;101959.34;;;3.60;45.55
32298;BME280;18782;48.984;8.548;2023-02-08T10:30:52;101958.47;;;3.70;45.20
32298;BME280;18782;48.984;8.548;2023-02-08T10:33:27;101947.03;;;3.85;44.88
32298;BME280;18782;48.984;8.548;2023-02-08T10:35:56;101954.03;;;3.87;43.37
32298;BME280;18782;48.984;8.548;2023-02-08T10:38:26;101944.78;;;4.51;62.83
32298;BME280;18782;48.984;8.548;2023-02-08T10:41:16;101947.91;;;4.68;43.82
32298;BME280;18782;48.984;8.548;2023-02-08T10:43:45;101945.59;;;5.04;56.56
32298;BME280;18782;48.984;8.548;2023-02-08T10:46:21;101940.28;;;4.90;46.20
32298;BME280;18782;48.984;8.548;2023-02-08T10:49:01;101935.13;;;5.01;42.64
32298;BME280;18782;48.984;8.548;2023-02-08T10:51:33;101933.75;;;4.94;42.80
32298;BME280;18782;48.984;8.548;2023-02-08T10:54:01;101932.34;;;5.19;42.36
32298;BME280;18782;48.984;8.548;2023-02-08T10:56:42;101924.06;;;5.56;43.63
32298;BME280;18782;48.984;8.548;2023-02-08T10:59:18;101928.84;;;5.85;39.81
32298;BME280;18782;48.984;8.548;2023-02-08T11:01:48;101910.78;;;5.71;39.42
32298;BME280;18782;48.984;8.548;2023-02-08T11:04:17;101918.25;;;5.80;39.08
32298;BME280;18782;48.984;8.548;2023-02-08T11:06:46;101919.22;;;5.92;38.68
32298;BME280;18782;48.984;8.548;2023-02-08T11:09:26;101908.88;;;6.03;39.66
32298;BME280;18782;48.984;8.548;2023-02-08T11:11:55;101913.56;;;6.20;38.74
32298;BME280;18782;48.984;8.548;2023-02-08T11:14:25;101911.78;;;5.95;38.94
32298;BME280;18782;48.984;8.548;2023-02-08T11:17:25;101899.22;;;6.10;38.92
32298;BME280;18782;48.984;8.548;2023-02-08T11:19:55;101901.31;;;6.16;39.50
32298;BME280;18782;48.984;8.548;2023-02-08T11:22:26;101896.00;;;6.13;38.57
32298;BME280;18782;48.984;8.548;2023-02-08T11:24:58;101898.66;;;6.26;38.31
32298;BME280;18782;48.984;8.548;2023-02-08T11:27:32;101895.44;;;6.40;37.79
32298;BME280;18782;48.984;8.548;2023-02-08T11:30:16;101889.66;;;6.54;36.69
32298;BME280;18782;48.984;8.548;2023-02-08T11:32:46;101903.88;;;6.63;36.92
32298;BME280;18782;48.984;8.548;2023-02-08T11:35:21;101888.31;;;6.60;36.47
32298;BME280;18782;48.984;8.548;2023-02-08T11:37:50;101887.97;;;6.67;36.79
32298;BME280;18782;48.984;8.548;2023-02-08T11:40:21;101885.19;;;7.12;36.18
32298;BME280;18782;48.984;8.548;2023-02-08T11:42:50;101868.88;;;7.62;35.79
32298;BME280;18782;48.984;8.548;2023-02-08T11:45:20;101875.50;;;8.09;36.00
32298;BME280;18782;48.984;8.548;2023-02-08T11:47:50;101872.56;;;8.56;34.33
32298;BME280;18782;48.984;8.548;2023-02-08T11:50:23;101871.59;;;8.41;34.24
32298;BME280;18782;48.984;8.548;2023-02-08T11:52:56;101862.41;;;8.86;34.89
32298;BME280;18782;48.984;8.548;2023-02-08T11:55:26;101847.53;;;9.08;34.30
32298;BME280;18782;48.984;8.548;2023-02-08T11:57:57;101855.19;;;9.22;32.92
32298;BME280;18782;48.984;8.548;2023-02-08T12:00:28;101859.66;;;9.54;33.93
32298;BME280;18782;48.984;8.548;2023-02-08T12:02:58;101852.59;;;9.94;33.65
32298;BME280;18782;48.984;8.548;2023-02-08T12:05:34;101856.03;;;10.39;32.77
32298;BME280;18782;48.984;8.548;2023-02-08T12:08:12;101859.19;;;10.81;31.12
32298;BME280;18782;48.984;8.548;2023-02-08T12:11:07;101848.97;;;10.51;30.89
32298;BME280;18782;48.984;8.548;2023-02-08T12:13:54;101845.03;;;10.58;32.46
32298;BME280;18782;48.984;8.548;2023-02-08T12:16:41;101847.94;;;10.80;32.16
32298;BME280;18782;48.984;8.548;2023-02-08T12:19:45;101842.41;;;11.05;34.76
32298;BME280;18782;48.984;8.548;2023-02-08T12:22:22;101837.88;;;11.50;35.74
32298;BME280;18782;48.984;8.548;2023-02-08T12:24:59;101832.00;;;11.36;30.58
32298;BME280;18782;48.984;8.548;2023-02-08T12:27:37;101825.91;;;11.68;29.69
32298;BME280;18782;48.984;8.548;2023-02-08T12:30:18;101824.22;;;11.18;29.76
32298;BME280;18782;48.984;8.548;2023-02-08T12:33:11;101816.56;;;10.71;30.21
32298;BME280;18782;48.984;8.548;2023-02-08T12:35:56;101810.69;;;11.22;30.51
32298;BME280;18782;48.984;8.548;2023-02-08T12:39:02;101807.16;;;11.04;30.27
32298;BME280;18782;48.984;8.548;2023-02-08T12:42:06;101811.44;;;11.54;30.42
32298;BME280;18782;48.984;8.548;2023-02-08T12:44:49;101802.63;;;11.16;30.55
32298;BME280;18782;48.984;8.548;2023-02-08T12:47:33;101792.53;;;11.37;29.91
32298;BME280;18782;48.984;8.548;2023-02-08T12:50:11;101784.78;;;10.70;30.55
32298;BME280;18782;48.984;8.548;2023-02-08T12:52:47;101787.38;;;10.87;30.07
32298;BME280;18782;48.984;8.548;2023-02-08T12:55:21;101782.91;;;11.01;30.46
32298;BME280;18782;48.984;8.548;2023-02-08T12:57:52;101780.44;;;11.36;30.62
32298;BME280;18782;48.984;8.548;2023-02-08T13:00:24;101776.88;;;10.84;30.82
32298;BME280;18782;48.984;8.548;2023-02-08T13:02:59;101771.81;;;11.02;30.04
32298;BME280;18782;48.984;8.548;2023-02-08T13:05:33;101766.56;;;11.68;30.57
32298;BME280;18782;48.984;8.548;2023-02-08T13:08:06;101766.53;;;11.85;30.02
32298;BME280;18782;48.984;8.548;2023-02-08T13:10:38;101762.19;;;11.84;30.75
32298;BME280;18782;48.984;8.548;2023-02-08T13:13:12;101759.16;;;11.06;29.92
32298;BME280;18782;48.984;8.548;2023-02-08T13:15:44;101755.06;;;10.77;30.73
32298;BME280;18782;48.984;8.548;2023-02-08T13:18:16;101749.19;;;10.80;30.40
32298;BME280;18782;48.984;8.548;2023-02-08T13:20:46;101758.84;;;10.35;30.16
32298;BME280;18782;48.984;8.548;2023-02-08T13:23:21;101750.00;;;10.62;30.67
32298;BME280;18782;48.984;8.548;2023-02-08T13:25:53;101752.88;;;11.17;31.05